Terminal Aerodrome Forecast
Issued by NWS Shreveport, LA

Home | Current Version | Previous Version | Text Only | Print | Product List | Glossary On
Versions: 1 2 3 4 5 6 7 8 9 10 11 12 13 14 15 16 17 18
000
FTUS44 KSHV 300521
TAFTYR
TAF
KTYR 300521Z 3006/0106 26012G22KT P6SM -RA BKN015 OVC030
     FM300700 23010KT P6SM VCSH OVC030
      TEMPO 3007/3010 OVC020
     FM301000 24009KT P6SM OVC030
      TEMPO 3015/3018 25016G28KT P6SM OVC150
     FM010100 26005KT P6SM SKC=

USA.gov is the U.S. government's official web portal to all federal, state and local government web resources and services.